sensor_id;sensor_type;location;lat;lon;timestamp;temperature;humidity
8214;DHT22;4148;47.974;7.824;2023-08-12T00:02:15;19.90;99.90
8214;DHT22;4148;47.974;7.824;2023-08-12T00:04:45;19.90;99.90
8214;DHT22;4148;47.974;7.824;2023-08-12T00:07:15;19.80;99.90
8214;DHT22;4148;47.974;7.824;2023-08-12T00:09:43;19.90;99.90
8214;DHT22;4148;47.974;7.824;2023-08-12T00:12:11;19.90;99.90
8214;DHT22;4148;47.974;7.824;2023-08-12T00:14:39;19.90;99.90
8214;DHT22;4148;47.974;7.824;2023-08-12T00:17:07;19.80;99.90
8214;DHT22;4148;47.974;7.824;2023-08-12T00:19:35;19.80;99.90
8214;DHT22;4148;47.974;7.824;2023-08-12T00:22:03;19.80;99.90
8214;DHT22;4148;47.974;7.824;2023-08-12T00:24:33;19.70;99.90
8214;DHT22;4148;47.974;7.824;2023-08-12T00:27:01;19.70;99.90
8214;DHT22;4148;47.974;7.824;2023-08-12T00:29:28;19.70;99.90
8214;DHT22;4148;47.974;7.824;2023-08-12T00:31:56;19.70;99.90
8214;DHT22;4148;47.974;7.824;2023-08-12T00:34:24;19.70;99.90
8214;DHT22;4148;47.974;7.824;2023-08-12T00:36:52;19.70;99.90
8214;DHT22;4148;47.974;7.824;2023-08-12T00:39:20;19.90;99.90
8214;DHT22;4148;47.974;7.824;2023-08-12T00:41:50;19.90;99.90
8214;DHT22;4148;47.974;7.824;2023-08-12T00:44:18;19.90;99.90
8214;DHT22;4148;47.974;7.824;2023-08-12T00:46:46;20.00;99.90
8214;DHT22;4148;47.974;7.824;2023-08-12T00:49:15;20.10;99.90
8214;DHT22;4148;47.974;7.824;2023-08-12T00:51:44;20.10;99.90
8214;DHT22;4148;47.974;7.824;2023-08-12T00:54:14;20.10;99.90
8214;DHT22;4148;47.974;7.824;2023-08-12T00:56:43;20.10;99.90
8214;DHT22;4148;47.974;7.824;2023-08-12T00:59:13;20.10;99.90
8214;DHT22;4148;47.974;7.824;2023-08-12T01:01:41;20.10;99.90
8214;DHT22;4148;47.974;7.824;2023-08-12T01:04:10;20.10;99.90
8214;DHT22;4148;47.974;7.824;2023-08-12T01:06:37;20.10;99.90
8214;DHT22;4148;47.974;7.824;2023-08-12T01:09:06;20.10;99.90
8214;DHT22;4148;47.974;7.824;2023-08-12T01:11:38;20.10;99.90
8214;DHT22;4148;47.974;7.824;2023-08-12T01:14:14;20.10;99.90
8214;DHT22;4148;47.974;7.824;2023-08-12T01:16:47;20.00;99.90
8214;DHT22;4148;47.974;7.824;2023-08-12T01:19:22;20.00;99.90
8214;DHT22;4148;47.974;7.824;2023-08-12T01:22:00;19.90;99.90
8214;DHT22;4148;47.974;7.824;2023-08-12T01:24:35;19.90;99.90
8214;DHT22;4148;47.974;7.824;2023-08-12T01:27:04;19.90;99.90
8214;DHT22;4148;47.974;7.824;2023-08-12T01:29:33;19.90;99.90
8214;DHT22;4148;47.974;7.824;2023-08-12T01:32:07;19.90;99.90
8214;DHT22;4148;47.974;7.824;2023-08-12T01:34:41;19.90;99.90
8214;DHT22;4148;47.974;7.824;2023-08-12T01:37:17;19.90;99.90
8214;DHT22;4148;47.974;7.824;2023-08-12T01:39:49;19.80;99.90
8214;DHT22;4148;47.974;7.824;2023-08-12T01:42:18;19.90;99.90
8214;DHT22;4148;47.974;7.824;2023-08-12T01:44:47;19.90;99.90
8214;DHT22;4148;47.974;7.824;2023-08-12T01:47:15;19.90;99.90
8214;DHT22;4148;47.974;7.824;2023-08-12T01:49:43;20.00;99.90
8214;DHT22;4148;47.974;7.824;2023-08-12T01:52:11;20.00;99.90
8214;DHT22;4148;47.974;7.824;2023-08-12T01:54:39;20.00;99.90
8214;DHT22;4148;47.974;7.824;2023-08-12T01:57:08;20.10;99.90
8214;DHT22;4148;47.974;7.824;2023-08-12T01:59:37;20.10;99.90
8214;DHT22;4148;47.974;7.824;2023-08-12T02:02:05;20.10;99.90
8214;DHT22;4148;47.974;7.824;2023-08-12T02:04:34;20.10;99.90
8214;DHT22;4148;47.974;7.824;2023-08-12T02:07:03;20.10;99.90
8214;DHT22;4148;47.974;7.824;2023-08-12T02:09:31;20.20;99.90
8214;DHT22;4148;47.974;7.824;2023-08-12T02:11:59;20.20;99.90
8214;DHT22;4148;47.974;7.824;2023-08-12T02:14:28;20.20;99.90
8214;DHT22;4148;47.974;7.824;2023-08-12T02:16:56;20.20;99.90
8214;DHT22;4148;47.974;7.824;2023-08-12T02:19:24;20.20;99.90
8214;DHT22;4148;47.974;7.824;2023-08-12T02:21:52;20.20;99.90
8214;DHT22;4148;47.974;7.824;2023-08-12T02:24:19;20.10;99.90
8214;DHT22;4148;47.974;7.824;2023-08-12T02:26:47;20.00;99.90
8214;DHT22;4148;47.974;7.824;2023-08-12T02:29:15;20.00;99.90
8214;DHT22;4148;47.974;7.824;2023-08-12T02:31:44;20.00;99.90
8214;DHT22;4148;47.974;7.824;2023-08-12T02:34:12;20.00;99.90
8214;DHT22;4148;47.974;7.824;2023-08-12T02:36:40;19.90;99.90
8214;DHT22;4148;47.974;7.824;2023-08-12T02:39:08;19.90;99.90
8214;DHT22;4148;47.974;7.824;2023-08-12T02:41:35;19.90;99.90
8214;DHT22;4148;47.974;7.824;2023-08-12T02:44:04;19.90;99.90
8214;DHT22;4148;47.974;7.824;2023-08-12T02:46:31;19.90;99.90
8214;DHT22;4148;47.974;7.824;2023-08-12T02:49:01;19.80;99.90
8214;DHT22;4148;47.974;7.824;2023-08-12T02:51:28;19.90;99.90
8214;DHT22;4148;47.974;7.824;2023-08-12T02:53:56;19.90;99.90
8214;DHT22;4148;47.974;7.824;2023-08-12T02:56:24;19.90;99.90
8214;DHT22;4148;47.974;7.824;2023-08-12T02:58:52;19.90;99.90
8214;DHT22;4148;47.974;7.824;2023-08-12T03:01:20;19.90;99.90
8214;DHT22;4148;47.974;7.824;2023-08-12T03:03:48;19.90;99.90
8214;DHT22;4148;47.974;7.824;2023-08-12T03:06:17;19.90;99.90
8214;DHT22;4148;47.974;7.824;2023-08-12T03:08:45;19.90;99.90
8214;DHT22;4148;47.974;7.824;2023-08-12T03:11:13;19.80;99.90
8214;DHT22;4148;47.974;7.824;2023-08-12T03:13:42;19.90;99.90
8214;DHT22;4148;47.974;7.824;2023-08-12T03:16:11;19.90;99.90
8214;DHT22;4148;47.974;7.824;2023-08-12T03:18:39;19.80;99.90
8214;DHT22;4148;47.974;7.824;2023-08-12T03:21:08;19.70;99.90
8214;DHT22;4148;47.974;7.824;2023-08-12T03:23:38;19.70;99.90
8214;DHT22;4148;47.974;7.824;2023-08-12T03:26:05;19.60;99.90
8214;DHT22;4148;47.974;7.824;2023-08-12T03:28:33;19.60;99.90
8214;DHT22;4148;47.974;7.824;2023-08-12T03:31:01;19.70;99.90
8214;DHT22;4148;47.974;7.824;2023-08-12T03:33:29;19.70;99.90
8214;DHT22;4148;47.974;7.824;2023-08-12T03:35:58;19.70;99.90
8214;DHT22;4148;47.974;7.824;2023-08-12T03:38:26;19.70;99.90
8214;DHT22;4148;47.974;7.824;2023-08-12T03:40:55;19.70;99.90
8214;DHT22;4148;47.974;7.824;2023-08-12T03:43:23;19.80;99.90
8214;DHT22;4148;47.974;7.824;2023-08-12T03:45:51;19.90;99.90
8214;DHT22;4148;47.974;7.824;2023-08-12T03:48:19;19.90;99.90
8214;DHT22;4148;47.974;7.824;2023-08-12T03:50:47;19.80;99.90
8214;DHT22;4148;47.974;7.824;2023-08-12T03:53:15;19.90;99.90
8214;DHT22;4148;47.974;7.824;2023-08-12T03:55:44;19.90;99.90
8214;DHT22;4148;47.974;7.824;2023-08-12T03:58:13;19.90;99.90
8214;DHT22;4148;47.974;7.824;2023-08-12T04:00:41;19.90;99.90
8214;DHT22;4148;47.974;7.824;2023-08-12T04:03:10;19.90;99.90
8214;DHT22;4148;47.974;7.824;2023-08-12T04:05:46;19.90;99.90
8214;DHT22;4148;47.974;7.824;2023-08-12T04:08:14;19.80;99.90
8214;DHT22;4148;47.974;7.824;2023-08-12T04:10:44;19.80;99.90
8214;DHT22;4148;47.974;7.824;2023-08-12T04:13:14;19.90;99.90
8214;DHT22;4148;47.974;7.824;2023-08-12T04:15:42;19.90;99.90
8214;DHT22;4148;47.974;7.824;2023-08-12T04:18:10;19.90;99.90
8214;DHT22;4148;47.974;7.824;2023-08-12T04:20:38;20.00;99.90
8214;DHT22;4148;47.974;7.824;2023-08-12T04:23:07;20.00;99.90
8214;DHT22;4148;47.974;7.824;2023-08-12T04:25:35;19.90;99.90
8214;DHT22;4148;47.974;7.824;2023-08-12T04:28:03;19.90;99.90
8214;DHT22;4148;47.974;7.824;2023-08-12T04:30:32;19.90;99.90
8214;DHT22;4148;47.974;7.824;2023-08-12T04:33:00;19.90;99.90
8214;DHT22;4148;47.974;7.824;2023-08-12T04:35:31;19.90;99.90
8214;DHT22;4148;47.974;7.824;2023-08-12T04:37:59;19.90;99.90
8214;DHT22;4148;47.974;7.824;2023-08-12T04:40:27;19.90;99.90
8214;DHT22;4148;47.974;7.824;2023-08-12T04:43:12;19.90;99.90
8214;DHT22;4148;47.974;7.824;2023-08-12T04:45:44;19.90;99.90
8214;DHT22;4148;47.974;7.824;2023-08-12T04:48:13;20.00;99.90
8214;DHT22;4148;47.974;7.824;2023-08-12T04:50:41;20.00;99.90
8214;DHT22;4148;47.974;7.824;2023-08-12T04:53:10;20.00;99.90
8214;DHT22;4148;47.974;7.824;2023-08-12T04:55:37;20.00;99.90
8214;DHT22;4148;47.974;7.824;2023-08-12T04:58:05;19.90;99.90
8214;DHT22;4148;47.974;7.824;2023-08-12T05:00:33;19.90;99.90
8214;DHT22;4148;47.974;7.824;2023-08-12T05:03:03;19.90;99.90
8214;DHT22;4148;47.974;7.824;2023-08-12T05:05:31;19.90;99.90
8214;DHT22;4148;47.974;7.824;2023-08-12T05:07:59;19.90;99.90
8214;DHT22;4148;47.974;7.824;2023-08-12T05:10:27;19.90;99.90
8214;DHT22;4148;47.974;7.824;2023-08-12T05:12:57;19.90;99.90
8214;DHT22;4148;47.974;7.824;2023-08-12T05:15:25;19.90;99.90
8214;DHT22;4148;47.974;7.824;2023-08-12T05:17:52;20.00;99.90
8214;DHT22;4148;47.974;7.824;2023-08-12T05:20:22;20.00;99.90
8214;DHT22;4148;47.974;7.824;2023-08-12T05:22:50;20.00;99.90
8214;DHT22;4148;47.974;7.824;2023-08-12T05:25:17;20.00;99.90
8214;DHT22;4148;47.974;7.824;2023-08-12T05:27:45;20.00;99.90
8214;DHT22;4148;47.974;7.824;2023-08-12T05:30:13;20.10;99.90
8214;DHT22;4148;47.974;7.824;2023-08-12T05:32:41;20.10;99.90
8214;DHT22;4148;47.974;7.824;2023-08-12T05:35:09;20.10;99.90
8214;DHT22;4148;47.974;7.824;2023-08-12T05:37:38;20.10;99.90
8214;DHT22;4148;47.974;7.824;2023-08-12T05:40:08;20.10;99.90
8214;DHT22;4148;47.974;7.824;2023-08-12T05:42:36;20.10;99.90
8214;DHT22;4148;47.974;7.824;2023-08-12T05:45:05;20.10;99.90
8214;DHT22;4148;47.974;7.824;2023-08-12T05:47:34;20.10;99.90
8214;DHT22;4148;47.974;7.824;2023-08-12T05:50:02;20.20;99.90
8214;DHT22;4148;47.974;7.824;2023-08-12T05:52:31;20.20;99.90
8214;DHT22;4148;47.974;7.824;2023-08-12T05:55:00;20.20;99.90
8214;DHT22;4148;47.974;7.824;2023-08-12T05:57:28;20.30;99.90
8214;DHT22;4148;47.974;7.824;2023-08-12T05:59:56;20.30;99.90
8214;DHT22;4148;47.974;7.824;2023-08-12T06:02:25;20.30;99.90
8214;DHT22;4148;47.974;7.824;2023-08-12T06:04:53;20.30;99.90
8214;DHT22;4148;47.974;7.824;2023-08-12T06:07:21;20.30;99.90
8214;DHT22;4148;47.974;7.824;2023-08-12T06:09:50;20.40;99.90
8214;DHT22;4148;47.974;7.824;2023-08-12T06:12:19;20.40;99.90
8214;DHT22;4148;47.974;7.824;2023-08-12T06:14:47;20.50;99.90
8214;DHT22;4148;47.974;7.824;2023-08-12T06:17:15;20.50;99.90
8214;DHT22;4148;47.974;7.824;2023-08-12T06:19:43;20.60;99.90
8214;DHT22;4148;47.974;7.824;2023-08-12T06:22:10;20.70;99.90
8214;DHT22;4148;47.974;7.824;2023-08-12T06:24:39;20.70;99.90
8214;DHT22;4148;47.974;7.824;2023-08-12T06:27:06;20.80;99.90
8214;DHT22;4148;47.974;7.824;2023-08-12T06:29:36;20.90;99.90
8214;DHT22;4148;47.974;7.824;2023-08-12T06:32:04;21.00;99.90
8214;DHT22;4148;47.974;7.824;2023-08-12T06:34:32;21.00;99.90
8214;DHT22;4148;47.974;7.824;2023-08-12T06:37:00;21.10;99.90
8214;DHT22;4148;47.974;7.824;2023-08-12T06:39:27;21.20;99.90
8214;DHT22;4148;47.974;7.824;2023-08-12T06:41:55;21.40;99.90
8214;DHT22;4148;47.974;7.824;2023-08-12T06:44:23;21.50;99.90
8214;DHT22;4148;47.974;7.824;2023-08-12T06:46:52;21.70;99.90
8214;DHT22;4148;47.974;7.824;2023-08-12T06:49:20;21.80;99.90
8214;DHT22;4148;47.974;7.824;2023-08-12T06:51:48;21.90;99.90
8214;DHT22;4148;47.974;7.824;2023-08-12T06:54:16;22.00;99.90
8214;DHT22;4148;47.974;7.824;2023-08-12T06:56:44;22.10;99.90
8214;DHT22;4148;47.974;7.824;2023-08-12T06:59:12;22.10;99.90
8214;DHT22;4148;47.974;7.824;2023-08-12T07:01:39;22.10;99.90
8214;DHT22;4148;47.974;7.824;2023-08-12T07:04:09;22.20;99.90
8214;DHT22;4148;47.974;7.824;2023-08-12T07:06:37;22.30;99.90
8214;DHT22;4148;47.974;7.824;2023-08-12T07:09:05;22.50;99.90
8214;DHT22;4148;47.974;7.824;2023-08-12T07:11:32;22.70;99.90
8214;DHT22;4148;47.974;7.824;2023-08-12T07:14:00;22.90;99.90
8214;DHT22;4148;47.974;7.824;2023-08-12T07:16:28;23.10;99.90
8214;DHT22;4148;47.974;7.824;2023-08-12T07:18:56;23.20;99.90
8214;DHT22;4148;47.974;7.824;2023-08-12T07:21:25;23.30;99.90
8214;DHT22;4148;47.974;7.824;2023-08-12T07:23:53;23.50;99.90
8214;DHT22;4148;47.974;7.824;2023-08-12T07:26:30;23.70;99.90
8214;DHT22;4148;47.974;7.824;2023-08-12T07:28:58;23.80;99.90
8214;DHT22;4148;47.974;7.824;2023-08-12T07:31:26;24.00;99.90
8214;DHT22;4148;47.974;7.824;2023-08-12T07:33:54;24.10;99.90
8214;DHT22;4148;47.974;7.824;2023-08-12T07:36:21;24.10;99.90
8214;DHT22;4148;47.974;7.824;2023-08-12T07:38:51;24.00;99.90
8214;DHT22;4148;47.974;7.824;2023-08-12T07:41:19;24.10;99.90
8214;DHT22;4148;47.974;7.824;2023-08-12T07:43:47;24.00;99.90
8214;DHT22;4148;47.974;7.824;2023-08-12T07:46:14;24.10;99.90
8214;DHT22;4148;47.974;7.824;2023-08-12T07:48:42;24.00;99.90
8214;DHT22;4148;47.974;7.824;2023-08-12T07:51:10;24.00;99.90
8214;DHT22;4148;47.974;7.824;2023-08-12T07:53:38;23.90;99.90
8214;DHT22;4148;47.974;7.824;2023-08-12T07:56:07;23.80;99.90
8214;DHT22;4148;47.974;7.824;2023-08-12T07:58:36;23.70;99.90
8214;DHT22;4148;47.974;7.824;2023-08-12T08:01:04;23.60;99.90
8214;DHT22;4148;47.974;7.824;2023-08-12T08:03:32;23.50;99.90
8214;DHT22;4148;47.974;7.824;2023-08-12T08:06:00;23.30;99.90
8214;DHT22;4148;47.974;7.824;2023-08-12T08:08:28;23.30;99.90
8214;DHT22;4148;47.974;7.824;2023-08-12T08:10:56;23.20;99.90
8214;DHT22;4148;47.974;7.824;2023-08-12T08:13:25;23.20;99.90
8214;DHT22;4148;47.974;7.824;2023-08-12T08:15:53;23.20;99.90
8214;DHT22;4148;47.974;7.824;2023-08-12T08:18:21;23.20;99.90
8214;DHT22;4148;47.974;7.824;2023-08-12T08:20:49;23.20;99.90
8214;DHT22;4148;47.974;7.824;2023-08-12T08:23:17;22.90;99.90
8214;DHT22;4148;47.974;7.824;2023-08-12T08:25:46;23.00;99.90
8214;DHT22;4148;47.974;7.824;2023-08-12T08:28:14;22.80;99.90
8214;DHT22;4148;47.974;7.824;2023-08-12T08:30:43;22.60;99.90
8214;DHT22;4148;47.974;7.824;2023-08-12T08:33:11;22.30;99.90
8214;DHT22;4148;47.974;7.824;2023-08-12T08:35:39;22.20;99.90
8214;DHT22;4148;47.974;7.824;2023-08-12T08:38:07;22.20;99.90
8214;DHT22;4148;47.974;7.824;2023-08-12T08:40:35;22.20;99.90
8214;DHT22;4148;47.974;7.824;2023-08-12T08:43:04;22.10;99.90
8214;DHT22;4148;47.974;7.824;2023-08-12T08:45:35;22.10;99.90
8214;DHT22;4148;47.974;7.824;2023-08-12T08:48:05;22.10;99.90
8214;DHT22;4148;47.974;7.824;2023-08-12T08:50:34;22.20;99.90
8214;DHT22;4148;47.974;7.824;2023-08-12T08:53:05;22.30;99.90
8214;DHT22;4148;47.974;7.824;2023-08-12T08:55:34;22.50;99.90
8214;DHT22;4148;47.974;7.824;2023-08-12T08:58:02;22.60;99.90
8214;DHT22;4148;47.974;7.824;2023-08-12T09:00:32;22.80;99.90
8214;DHT22;4148;47.974;7.824;2023-08-12T09:03:01;22.90;99.90
8214;DHT22;4148;47.974;7.824;2023-08-12T09:05:31;23.20;99.90
8214;DHT22;4148;47.974;7.824;2023-08-12T09:08:02;23.60;99.90
8214;DHT22;4148;47.974;7.824;2023-08-12T09:10:31;23.80;99.90
8214;DHT22;4148;47.974;7.824;2023-08-12T09:13:00;23.70;99.90
8214;DHT22;4148;47.974;7.824;2023-08-12T09:15:28;23.50;99.90
8214;DHT22;4148;47.974;7.824;2023-08-12T09:17:56;23.30;99.90
8214;DHT22;4148;47.974;7.824;2023-08-12T09:20:24;23.20;99.90
8214;DHT22;4148;47.974;7.824;2023-08-12T09:22:57;22.90;99.90
8214;DHT22;4148;47.974;7.824;2023-08-12T09:25:27;22.80;99.90
8214;DHT22;4148;47.974;7.824;2023-08-12T09:27:58;22.70;99.90
8214;DHT22;4148;47.974;7.824;2023-08-12T09:30:29;22.60;99.90
8214;DHT22;4148;47.974;7.824;2023-08-12T09:32:59;22.60;99.90
8214;DHT22;4148;47.974;7.824;2023-08-12T09:35:33;22.60;99.90
8214;DHT22;4148;47.974;7.824;2023-08-12T09:38:05;22.60;99.90
8214;DHT22;4148;47.974;7.824;2023-08-12T09:40:34;22.70;99.90
8214;DHT22;4148;47.974;7.824;2023-08-12T09:43:03;23.10;99.90
8214;DHT22;4148;47.974;7.824;2023-08-12T09:45:32;23.50;99.90
8214;DHT22;4148;47.974;7.824;2023-08-12T09:48:00;23.70;99.90
8214;DHT22;4148;47.974;7.824;2023-08-12T09:50:29;23.70;99.90
8214;DHT22;4148;47.974;7.824;2023-08-12T09:52:57;23.80;99.90
8214;DHT22;4148;47.974;7.824;2023-08-12T09:55:26;24.00;99.90
8214;DHT22;4148;47.974;7.824;2023-08-12T09:57:56;24.20;99.90
8214;DHT22;4148;47.974;7.824;2023-08-12T10:00:25;24.50;99.90
8214;DHT22;4148;47.974;7.824;2023-08-12T10:02:53;24.80;99.90
8214;DHT22;4148;47.974;7.824;2023-08-12T10:05:22;25.00;99.90
8214;DHT22;4148;47.974;7.824;2023-08-12T10:07:53;25.50;99.90
8214;DHT22;4148;47.974;7.824;2023-08-12T10:10:21;26.30;99.90
8214;DHT22;4148;47.974;7.824;2023-08-12T10:12:51;26.90;99.90
8214;DHT22;4148;47.974;7.824;2023-08-12T10:15:20;27.30;99.90
8214;DHT22;4148;47.974;7.824;2023-08-12T10:17:49;27.40;99.90
8214;DHT22;4148;47.974;7.824;2023-08-12T10:20:21;27.40;99.90
8214;DHT22;4148;47.974;7.824;2023-08-12T10:22:51;27.30;99.90
8214;DHT22;4148;47.974;7.824;2023-08-12T10:25:19;27.20;99.90
8214;DHT22;4148;47.974;7.824;2023-08-12T10:27:50;27.10;99.90
8214;DHT22;4148;47.974;7.824;2023-08-12T10:30:20;27.10;99.90
8214;DHT22;4148;47.974;7.824;2023-08-12T10:32:48;27.50;99.90
8214;DHT22;4148;47.974;7.824;2023-08-12T10:35:16;27.90;99.90
8214;DHT22;4148;47.974;7.824;2023-08-12T10:37:48;28.00;99.90
8214;DHT22;4148;47.974;7.824;2023-08-12T10:40:21;27.80;99.90
8214;DHT22;4148;47.974;7.824;2023-08-12T10:42:50;27.60;99.90
8214;DHT22;4148;47.974;7.824;2023-08-12T10:45:19;27.30;99.90
8214;DHT22;4148;47.974;7.824;2023-08-12T10:48:09;27.20;99.90
8214;DHT22;4148;47.974;7.824;2023-08-12T10:50:38;27.10;99.90
8214;DHT22;4148;47.974;7.824;2023-08-12T10:53:22;27.00;99.90
8214;DHT22;4148;47.974;7.824;2023-08-12T10:55:53;26.80;99.90
8214;DHT22;4148;47.974;7.824;2023-08-12T10:58:28;26.90;99.90
8214;DHT22;4148;47.974;7.824;2023-08-12T11:00:57;26.80;99.90
8214;DHT22;4148;47.974;7.824;2023-08-12T11:03:26;26.70;99.90
8214;DHT22;4148;47.974;7.824;2023-08-12T11:06:01;26.60;99.90
8214;DHT22;4148;47.974;7.824;2023-08-12T11:08:30;26.60;99.90
8214;DHT22;4148;47.974;7.824;2023-08-12T11:10:57;26.50;99.90
8214;DHT22;4148;47.974;7.824;2023-08-12T11:13:30;26.50;99.90
8214;DHT22;4148;47.974;7.824;2023-08-12T11:16:07;26.30;99.90
8214;DHT22;4148;47.974;7.824;2023-08-12T11:18:35;26.20;99.90
8214;DHT22;4148;47.974;7.824;2023-08-12T11:21:03;25.90;99.90
8214;DHT22;4148;47.974;7.824;2023-08-12T11:23:32;25.30;99.90
8214;DHT22;4148;47.974;7.824;2023-08-12T11:26:00;25.00;99.90
8214;DHT22;4148;47.974;7.824;2023-08-12T11:28:30;24.50;99.90
8214;DHT22;4148;47.974;7.824;2023-08-12T11:30:58;24.00;99.90
8214;DHT22;4148;47.974;7.824;2023-08-12T11:33:26;23.50;99.90
8214;DHT22;4148;47.974;7.824;2023-08-12T11:35:54;23.30;99.90
8214;DHT22;4148;47.974;7.824;2023-08-12T11:38:22;22.90;99.90
8214;DHT22;4148;47.974;7.824;2023-08-12T11:40:50;22.80;99.90
8214;DHT22;4148;47.974;7.824;2023-08-12T11:43:21;22.70;99.90
8214;DHT22;4148;47.974;7.824;2023-08-12T11:45:50;22.60;99.90
8214;DHT22;4148;47.974;7.824;2023-08-12T11:48:18;22.70;99.90
8214;DHT22;4148;47.974;7.824;2023-08-12T11:50:46;22.80;99.90
8214;DHT22;4148;47.974;7.824;2023-08-12T11:53:14;23.00;99.90
8214;DHT22;4148;47.974;7.824;2023-08-12T11:55:43;23.10;99.90
8214;DHT22;4148;47.974;7.824;2023-08-12T11:58:13;23.30;99.90
8214;DHT22;4148;47.974;7.824;2023-08-12T12:00:46;23.40;99.90
8214;DHT22;4148;47.974;7.824;2023-08-12T12:03:16;23.70;99.90
8214;DHT22;4148;47.974;7.824;2023-08-12T12:05:46;24.10;99.90
8214;DHT22;4148;47.974;7.824;2023-08-12T12:08:15;24.20;99.90
8214;DHT22;4148;47.974;7.824;2023-08-12T12:10:43;24.30;99.90
8214;DHT22;4148;47.974;7.824;2023-08-12T12:13:11;24.40;99.90
8214;DHT22;4148;47.974;7.824;2023-08-12T12:15:41;24.40;99.90
8214;DHT22;4148;47.974;7.824;2023-08-12T12:18:10;24.20;99.90
8214;DHT22;4148;47.974;7.824;2023-08-12T12:20:54;24.30;99.90
8214;DHT22;4148;47.974;7.824;2023-08-12T12:23:22;24.60;99.90
8214;DHT22;4148;47.974;7.824;2023-08-12T12:25:57;24.80;99.90
8214;DHT22;4148;47.974;7.824;2023-08-12T12:28:25;25.00;99.90
8214;DHT22;4148;47.974;7.824;2023-08-12T12:30:54;25.10;99.90
8214;DHT22;4148;47.974;7.824;2023-08-12T12:33:22;25.10;99.90
8214;DHT22;4148;47.974;7.824;2023-08-12T12:35:51;25.10;99.90
8214;DHT22;4148;47.974;7.824;2023-08-12T12:38:25;25.10;99.90
8214;DHT22;4148;47.974;7.824;2023-08-12T12:40:53;25.20;99.90
8214;DHT22;4148;47.974;7.824;2023-08-12T12:43:21;25.40;99.90
8214;DHT22;4148;47.974;7.824;2023-08-12T12:45:49;25.60;99.90
8214;DHT22;4148;47.974;7.824;2023-08-12T12:48:17;25.50;99.90
8214;DHT22;4148;47.974;7.824;2023-08-12T12:50:45;25.60;99.90
8214;DHT22;4148;47.974;7.824;2023-08-12T12:53:14;25.70;99.90
8214;DHT22;4148;47.974;7.824;2023-08-12T12:55:42;25.70;99.90
8214;DHT22;4148;47.974;7.824;2023-08-12T12:58:11;25.80;99.90
8214;DHT22;4148;47.974;7.824;2023-08-12T13:00:38;26.00;99.90
8214;DHT22;4148;47.974;7.824;2023-08-12T13:03:06;26.00;99.90
8214;DHT22;4148;47.974;7.824;2023-08-12T13:05:34;26.00;99.90
8214;DHT22;4148;47.974;7.824;2023-08-12T13:08:02;26.00;99.90
8214;DHT22;4148;47.974;7.824;2023-08-12T13:10:32;25.80;99.90
8214;DHT22;4148;47.974;7.824;2023-08-12T13:12:59;25.80;99.90
8214;DHT22;4148;47.974;7.824;2023-08-12T13:15:27;25.70;99.90
8214;DHT22;4148;47.974;7.824;2023-08-12T13:17:55;25.70;99.90
8214;DHT22;4148;47.974;7.824;2023-08-12T13:20:23;25.80;99.90
8214;DHT22;4148;47.974;7.824;2023-08-12T13:22:51;25.80;99.90
8214;DHT22;4148;47.974;7.824;2023-08-12T13:25:19;25.80;99.90
8214;DHT22;4148;47.974;7.824;2023-08-12T13:27:48;25.90;99.90
8214;DHT22;4148;47.974;7.824;2023-08-12T13:30:16;25.90;99.90
8214;DHT22;4148;47.974;7.824;2023-08-12T13:32:44;25.90;99.90
8214;DHT22;4148;47.974;7.824;2023-08-12T13:35:12;25.90;99.90
8214;DHT22;4148;47.974;7.824;2023-08-12T13:37:40;25.90;99.90
8214;DHT22;4148;47.974;7.824;2023-08-12T13:40:09;25.90;99.90
8214;DHT22;4148;47.974;7.824;2023-08-12T13:42:38;25.90;99.90
8214;DHT22;4148;47.974;7.824;2023-08-12T13:45:09;25.90;99.90
8214;DHT22;4148;47.974;7.824;2023-08-12T13:47:37;26.00;99.90
8214;DHT22;4148;47.974;7.824;2023-08-12T13:50:06;26.00;99.90
8214;DHT22;4148;47.974;7.824;2023-08-12T13:52:34;26.00;99.90
8214;DHT22;4148;47.974;7.824;2023-08-12T13:55:02;26.10;99.90
8214;DHT22;4148;47.974;7.824;2023-08-12T13:57:30;26.00;99.90
8214;DHT22;4148;47.974;7.824;2023-08-12T13:59:58;26.10;99.90
8214;DHT22;4148;47.974;7.824;2023-08-12T14:02:28;26.20;99.90
8214;DHT22;4148;47.974;7.824;2023-08-12T14:04:56;26.30;99.90
8214;DHT22;4148;47.974;7.824;2023-08-12T14:07:24;26.40;99.90
8214;DHT22;4148;47.974;7.824;2023-08-12T14:09:52;26.40;99.90
8214;DHT22;4148;47.974;7.824;2023-08-12T14:12:20;26.30;99.90
8214;DHT22;4148;47.974;7.824;2023-08-12T14:14:48;26.40;99.90
8214;DHT22;4148;47.974;7.824;2023-08-12T14:17:15;26.40;99.90
8214;DHT22;4148;47.974;7.824;2023-08-12T14:19:49;26.40;99.90
8214;DHT22;4148;47.974;7.824;2023-08-12T14:22:18;26.40;99.90
8214;DHT22;4148;47.974;7.824;2023-08-12T14:24:46;26.50;99.90
8214;DHT22;4148;47.974;7.824;2023-08-12T14:27:15;26.60;99.90
8214;DHT22;4148;47.974;7.824;2023-08-12T14:29:44;26.60;99.90
8214;DHT22;4148;47.974;7.824;2023-08-12T14:32:12;26.70;99.90
8214;DHT22;4148;47.974;7.824;2023-08-12T14:34:42;26.70;99.90
8214;DHT22;4148;47.974;7.824;2023-08-12T14:37:14;26.70;99.90
8214;DHT22;4148;47.974;7.824;2023-08-12T14:39:42;26.60;99.90
8214;DHT22;4148;47.974;7.824;2023-08-12T14:42:10;26.70;99.90
8214;DHT22;4148;47.974;7.824;2023-08-12T14:44:38;26.60;99.90
8214;DHT22;4148;47.974;7.824;2023-08-12T14:47:06;26.70;99.90
8214;DHT22;4148;47.974;7.824;2023-08-12T14:49:34;26.70;99.90
8214;DHT22;4148;47.974;7.824;2023-08-12T14:52:02;26.70;99.90
8214;DHT22;4148;47.974;7.824;2023-08-12T14:54:31;26.80;99.90
8214;DHT22;4148;47.974;7.824;2023-08-12T14:56:59;26.70;99.90
8214;DHT22;4148;47.974;7.824;2023-08-12T14:59:27;26.80;99.90
8214;DHT22;4148;47.974;7.824;2023-08-12T15:01:55;26.90;99.90
8214;DHT22;4148;47.974;7.824;2023-08-12T15:04:23;26.90;99.90
8214;DHT22;4148;47.974;7.824;2023-08-12T15:06:50;26.80;99.90
8214;DHT22;4148;47.974;7.824;2023-08-12T15:09:18;26.90;99.90
8214;DHT22;4148;47.974;7.824;2023-08-12T15:11:48;26.90;99.90
8214;DHT22;4148;47.974;7.824;2023-08-12T15:14:16;26.90;99.90
8214;DHT22;4148;47.974;7.824;2023-08-12T15:16:44;26.80;99.90
8214;DHT22;4148;47.974;7.824;2023-08-12T15:19:12;26.80;99.90
8214;DHT22;4148;47.974;7.824;2023-08-12T15:21:40;26.80;99.90
8214;DHT22;4148;47.974;7.824;2023-08-12T15:24:08;26.70;99.90
8214;DHT22;4148;47.974;7.824;2023-08-12T15:26:36;26.80;99.90
8214;DHT22;4148;47.974;7.824;2023-08-12T15:29:05;26.80;99.90
8214;DHT22;4148;47.974;7.824;2023-08-12T15:31:33;26.70;99.90
8214;DHT22;4148;47.974;7.824;2023-08-12T15:34:01;26.60;99.90
8214;DHT22;4148;47.974;7.824;2023-08-12T15:36:29;26.60;99.90
8214;DHT22;4148;47.974;7.824;2023-08-12T15:38:57;26.60;99.90
8214;DHT22;4148;47.974;7.824;2023-08-12T15:41:25;26.70;99.90
8214;DHT22;4148;47.974;7.824;2023-08-12T15:43:53;26.80;99.90
8214;DHT22;4148;47.974;7.824;2023-08-12T15:46:22;26.80;99.90
8214;DHT22;4148;47.974;7.824;2023-08-12T15:48:50;26.80;99.90
8214;DHT22;4148;47.974;7.824;2023-08-12T15:51:18;26.80;99.90
8214;DHT22;4148;47.974;7.824;2023-08-12T15:53:46;26.90;99.90
8214;DHT22;4148;47.974;7.824;2023-08-12T15:56:14;27.00;99.90
8214;DHT22;4148;47.974;7.824;2023-08-12T15:58:41;27.00;99.90
8214;DHT22;4148;47.974;7.824;2023-08-12T16:01:09;26.90;99.90
8214;DHT22;4148;47.974;7.824;2023-08-12T16:03:39;26.90;99.90
8214;DHT22;4148;47.974;7.824;2023-08-12T16:06:07;26.90;99.90
8214;DHT22;4148;47.974;7.824;2023-08-12T16:08:35;26.90;99.90
8214;DHT22;4148;47.974;7.824;2023-08-12T16:11:02;26.90;99.90
8214;DHT22;4148;47.974;7.824;2023-08-12T16:13:31;26.90;99.90